createdAt,value
2019-01-28T00:00:06.145Z,84.87
2019-01-28T00:03:08.570Z,85.10
2019-01-28T00:06:11.091Z,85.51
2019-01-28T00:09:13.053Z,85.67
2019-01-28T00:12:15.075Z,85.26
2019-01-28T00:15:20.121Z,85.43
2019-01-28T00:18:27.030Z,85.10
2019-01-28T00:21:29.130Z,85.08
2019-01-28T00:24:34.228Z,85.07
2019-01-28T00:27:38.074Z,85.10
2019-01-28T00:30:42.828Z,85.85
2019-01-28T00:33:44.863Z,86.39
2019-01-28T00:36:46.966Z,85.78
2019-01-28T00:39:49.225Z,85.74
2019-01-28T00:42:51.280Z,85.69
2019-01-28T00:45:54.616Z,85.56
2019-01-28T00:48:56.625Z,85.52
2019-01-28T00:51:58.620Z,85.91
2019-01-28T00:55:02.120Z,85.30
2019-01-28T00:58:04.146Z,84.92
2019-01-28T01:01:06.403Z,84.30
2019-01-28T01:04:09.871Z,83.60
2019-01-28T01:07:11.890Z,82.53
2019-01-28T01:10:13.893Z,82.72
2019-01-28T01:13:18.966Z,83.08
2019-01-28T01:16:21.207Z,82.58
2019-01-28T01:19:23.231Z,82.00
2019-01-28T01:22:26.536Z,81.20
2019-01-28T01:25:28.725Z,81.18
2019-01-28T01:28:30.721Z,81.42
2019-01-28T01:31:34.280Z,81.77
2019-01-28T01:34:36.368Z,81.18
2019-01-28T01:37:42.784Z,80.87
2019-01-28T01:40:44.793Z,80.07
2019-01-28T01:43:46.907Z,80.34
2019-01-28T01:46:54.420Z,81.67
2019-01-28T01:49:56.438Z,82.48
2019-01-28T01:52:59.910Z,82.49
2019-01-28T01:56:07.452Z,83.38
2019-01-28T01:59:11.505Z,83.33
2019-01-28T02:02:13.505Z,81.95
2019-01-28T02:05:18.121Z,81.34
2019-01-28T02:08:20.139Z,81.00
2019-01-28T02:11:22.178Z,81.53
2019-01-28T02:14:26.633Z,81.69
2019-01-28T02:17:29.852Z,80.87
2019-01-28T02:20:32.115Z,82.23
2019-01-28T02:23:35.972Z,83.00
2019-01-28T02:26:38.023Z,82.07
2019-01-28T02:29:40.024Z,81.39
2019-01-28T02:32:42.123Z,80.27
2019-01-28T02:35:45.651Z,81.61
2019-01-28T02:38:51.602Z,81.36
2019-01-28T02:41:53.640Z,81.04
2019-01-28T02:44:55.880Z,81.30
2019-01-28T02:48:00.892Z,81.32
2019-01-28T02:51:03.222Z,81.46
2019-01-28T02:54:05.715Z,82.28
2019-01-28T02:57:12.308Z,82.88
2019-01-28T03:03:47.384Z,82.92
2019-01-28T03:06:49.388Z,82.96
2019-01-28T03:09:51.421Z,83.62
2019-01-28T03:12:53.683Z,82.55
2019-01-28T03:15:55.715Z,82.10
2019-01-28T03:19:01.203Z,82.28
2019-01-28T03:22:05.600Z,82.10
2019-01-28T03:25:09.722Z,81.69
2019-01-28T03:28:11.722Z,82.58
2019-01-28T03:31:13.614Z,82.41
2019-01-28T03:34:15.646Z,81.51
2019-01-28T03:37:17.663Z,82.19
2019-01-28T03:40:19.705Z,82.06
2019-01-28T03:43:22.823Z,82.87
2019-01-28T03:46:24.828Z,82.35
2019-01-28T03:49:26.823Z,81.85
2019-01-28T03:52:29.014Z,83.02
2019-01-28T03:55:30.986Z,83.57
2019-01-28T03:58:33.038Z,82.92
2019-01-28T04:01:35.116Z,82.68
2019-01-28T04:04:37.377Z,82.46
2019-01-28T04:07:39.357Z,81.33
2019-01-28T04:10:41.364Z,81.23
2019-01-28T04:13:43.634Z,80.72
2019-01-28T04:16:45.639Z,81.22
2019-01-28T04:19:47.650Z,80.89
2019-01-28T04:22:49.802Z,80.86
2019-01-28T04:25:54.298Z,80.54
2019-01-28T04:28:56.317Z,80.31
2019-01-28T04:31:59.670Z,80.67
2019-01-28T04:35:02.444Z,80.59
2019-01-28T04:38:04.553Z,79.41
2019-01-28T04:41:06.579Z,78.48
2019-01-28T04:44:11.288Z,78.27
2019-01-28T04:47:13.332Z,77.92
2019-01-28T04:50:16.921Z,77.80
2019-01-28T04:53:19.420Z,77.52
2019-01-28T04:56:21.411Z,77.54
2019-01-28T04:59:23.447Z,78.90
2019-01-28T05:02:25.491Z,78.95
2019-01-28T05:05:27.499Z,78.87
2019-01-28T05:08:29.520Z,79.17
2019-01-28T05:11:31.748Z,79.45
2019-01-28T05:14:36.910Z,79.31
2019-01-28T05:17:38.963Z,79.43
2019-01-28T05:20:43.687Z,79.33
2019-01-28T05:23:45.859Z,79.55
2019-01-28T05:26:47.880Z,79.97
2019-01-28T05:29:51.020Z,79.62
2019-01-28T05:32:53.291Z,79.92
2019-01-28T05:35:55.354Z,79.30
2019-01-28T05:39:06.326Z,80.40
2019-01-28T05:42:08.365Z,80.42
2019-01-28T05:45:12.349Z,80.33
2019-01-28T05:48:14.360Z,79.82
2019-01-28T05:51:16.367Z,80.38
2019-01-28T05:54:19.666Z,80.62
2019-01-28T05:57:21.661Z,80.82
2019-01-28T06:00:34.352Z,81.40
2019-01-28T06:03:36.392Z,80.62
2019-01-28T06:06:38.409Z,80.76
2019-01-28T06:09:40.388Z,81.57
2019-01-28T06:12:44.932Z,80.53
2019-01-28T06:15:46.942Z,80.54
2019-01-28T06:18:51.211Z,81.83
2019-01-28T06:21:53.287Z,83.42
2019-01-28T06:24:56.707Z,83.81
2019-01-28T06:27:59.813Z,84.31
2019-01-28T06:31:01.811Z,84.52
2019-01-28T06:34:04.007Z,84.11
2019-01-28T06:37:07.557Z,84.02
2019-01-28T06:40:12.099Z,82.61
2019-01-28T06:43:14.250Z,82.51
2019-01-28T06:46:16.284Z,81.87
2019-01-28T06:49:18.293Z,81.92
2019-01-28T06:52:20.508Z,81.21
2019-01-28T06:55:22.486Z,80.72
2019-01-28T06:58:24.582Z,81.11
2019-01-28T07:01:28.415Z,80.91
2019-01-28T07:04:31.927Z,81.50
2019-01-28T07:07:35.192Z,81.20
2019-01-28T07:10:44.460Z,81.51
2019-01-28T07:13:46.710Z,83.24
2019-01-28T07:16:48.722Z,81.80
2019-01-28T07:19:51.104Z,81.80
2019-01-28T07:22:53.276Z,81.00
2019-01-28T07:25:55.300Z,80.24
2019-01-28T07:29:07.884Z,81.77
2019-01-28T07:32:21.236Z,81.24
2019-01-28T07:35:25.329Z,81.65
2019-01-28T07:38:27.470Z,81.03
2019-01-28T07:41:29.501Z,81.41
2019-01-28T07:44:31.849Z,79.40
2019-01-28T07:47:36.685Z,79.44
2019-01-28T07:50:41.061Z,79.53
2019-01-28T07:53:44.063Z,79.23
2019-01-28T07:56:47.079Z,78.94
2019-01-28T07:59:49.198Z,79.35
2019-01-28T08:02:51.206Z,79.54
2019-01-28T08:05:53.408Z,80.49
2019-01-28T08:08:57.486Z,79.94
2019-01-28T08:11:59.510Z,78.56
2019-01-28T08:15:06.207Z,79.63
2019-01-28T08:18:10.855Z,78.89
2019-01-28T08:21:12.095Z,79.45
2019-01-28T08:24:14.126Z,78.44
2019-01-28T08:27:18.189Z,78.47
2019-01-28T08:30:22.739Z,78.93
2019-01-28T08:33:24.940Z,79.09
2019-01-28T08:36:26.966Z,78.22
2019-01-28T08:39:28.964Z,78.27
2019-01-28T08:42:32.057Z,77.16
2019-01-28T08:45:34.066Z,76.82
2019-01-28T08:48:36.065Z,76.10
2019-01-28T08:51:38.113Z,76.27
2019-01-28T08:54:42.272Z,76.31
2019-01-28T08:57:44.295Z,75.89
2019-01-28T09:00:46.322Z,77.81
2019-01-28T09:03:51.137Z,76.80
2019-01-28T09:06:53.128Z,77.26
2019-01-28T09:09:55.173Z,76.17
2019-01-28T09:12:57.445Z,76.57
2019-01-28T09:16:01.273Z,75.50
2019-01-28T09:19:03.293Z,77.36
2019-01-28T09:22:05.273Z,75.65
2019-01-28T09:25:09.796Z,77.14
2019-01-28T09:28:11.875Z,75.40
2019-01-28T09:31:13.865Z,74.35
2019-01-28T09:34:17.277Z,75.41
2019-01-28T09:37:22.503Z,73.93
2019-01-28T09:40:25.642Z,73.61
2019-01-28T09:43:33.043Z,72.52
2019-01-28T09:46:39.644Z,72.58
2019-01-28T09:49:48.651Z,73.08
2019-01-28T09:52:51.123Z,73.32
2019-01-28T09:55:53.135Z,75.30
2019-01-28T09:58:57.542Z,73.76
2019-01-28T10:02:00.097Z,73.58
2019-01-28T10:05:02.210Z,72.95
2019-01-28T10:08:04.515Z,73.29
2019-01-28T10:14:25.478Z,73.03
2019-01-28T10:17:27.491Z,73.88
2019-01-28T10:20:46.041Z,74.80
2019-01-28T10:23:48.676Z,72.34
2019-01-28T10:26:50.825Z,73.19
2019-01-28T10:29:54.071Z,73.10
2019-01-28T10:32:56.397Z,74.02
2019-01-28T10:35:58.422Z,72.10
2019-01-28T10:39:00.429Z,71.81
2019-01-28T10:42:09.669Z,73.60
2019-01-28T10:45:09.330Z,71.31
2019-01-28T10:48:11.561Z,70.50
2019-01-28T10:51:15.738Z,69.80
2019-01-28T10:54:19.585Z,68.69
2019-01-28T10:57:23.733Z,68.97
2019-01-28T11:00:49.134Z,68.99
2019-01-28T11:03:51.208Z,68.29
2019-01-28T11:06:53.193Z,68.14
2019-01-28T11:09:57.602Z,66.43
2019-01-28T11:13:01.870Z,64.72
2019-01-28T11:16:05.000Z,64.02
2019-01-28T11:19:07.097Z,63.87
2019-01-28T11:22:09.207Z,64.07
2019-01-28T11:25:13.704Z,64.85
2019-01-28T11:28:15.829Z,62.54
2019-01-28T11:31:17.960Z,62.65
2019-01-28T11:34:20.474Z,61.87
2019-01-28T11:37:22.460Z,62.35
2019-01-28T11:40:24.486Z,61.80
2019-01-28T11:43:26.898Z,62.21
2019-01-28T11:46:29.090Z,63.11
2019-01-28T11:49:31.420Z,62.04
2019-01-28T11:52:33.619Z,62.07
2019-01-28T11:55:35.630Z,60.60
2019-01-28T11:58:37.776Z,61.26
2019-01-28T12:01:48.804Z,62.85
2019-01-28T12:04:50.876Z,59.70
2019-01-28T12:07:55.910Z,60.53
2019-01-28T12:10:58.049Z,59.25
2019-01-28T12:14:00.054Z,59.02
2019-01-28T12:17:03.492Z,59.80
2019-01-28T12:20:09.257Z,58.38
2019-01-28T12:23:11.361Z,59.08
2019-01-28T12:26:15.506Z,58.02
2019-01-28T12:29:17.818Z,60.45
2019-01-28T12:32:21.292Z,58.33
2019-01-28T12:35:25.948Z,58.55
2019-01-28T12:38:30.022Z,57.15
2019-01-28T12:41:32.081Z,57.36
2019-01-28T12:44:35.485Z,57.47
2019-01-28T12:47:37.498Z,56.01
2019-01-28T12:50:39.539Z,55.51
2019-01-28T12:53:41.747Z,54.52
2019-01-28T12:56:43.845Z,54.86
2019-01-28T12:59:45.781Z,54.87
2019-01-28T13:02:47.824Z,56.19
2019-01-28T13:05:49.859Z,55.65
2019-01-28T13:08:54.003Z,54.86
2019-01-28T13:11:56.168Z,54.91
2019-01-28T13:14:58.464Z,55.08
2019-01-28T13:18:00.591Z,56.15
2019-01-28T13:21:05.533Z,55.63
2019-01-28T13:24:08.760Z,57.52
2019-01-28T13:27:13.854Z,55.85
2019-01-28T13:30:19.708Z,55.51
2019-01-28T13:33:23.677Z,56.47
2019-01-28T13:36:26.175Z,55.37
2019-01-28T13:39:28.227Z,54.64
2019-01-28T13:42:30.554Z,55.07
2019-01-28T13:45:32.593Z,55.67
2019-01-28T13:48:36.501Z,56.18
2019-01-28T13:51:39.830Z,55.43
2019-01-28T13:54:41.925Z,56.12
2019-01-28T13:57:43.963Z,60.58
2019-01-28T14:00:48.755Z,61.74
2019-01-28T14:03:53.558Z,65.22
2019-01-28T14:06:58.129Z,67.21
2019-01-28T14:10:00.225Z,67.33
2019-01-28T14:13:04.114Z,67.95
2019-01-28T14:16:06.124Z,67.76
2019-01-28T14:19:08.377Z,66.73
2019-01-28T14:22:10.753Z,65.96
2019-01-28T14:25:13.762Z,66.79
2019-01-28T14:28:15.834Z,68.43
2019-01-28T14:31:19.677Z,73.20
2019-01-28T14:34:21.973Z,78.13
2019-01-28T14:37:32.158Z,78.81
2019-01-28T14:40:38.260Z,79.51
2019-01-28T14:43:43.227Z,79.39
2019-01-28T14:46:45.387Z,80.37
2019-01-28T14:49:54.412Z,80.48
2019-01-28T14:52:51.475Z,80.76
2019-01-28T14:55:53.516Z,80.21
2019-01-28T14:58:57.326Z,80.30
2019-01-28T15:01:59.314Z,81.73
2019-01-28T15:05:01.432Z,81.28
2019-01-28T15:08:05.046Z,82.01
2019-01-28T15:11:07.100Z,80.62
2019-01-28T15:14:09.441Z,80.14
2019-01-28T15:17:11.514Z,79.57
2019-01-28T15:20:16.447Z,80.12
2019-01-28T15:23:18.713Z,79.87
2019-01-28T15:26:20.748Z,78.72
2019-01-28T15:29:22.894Z,79.23
2019-01-28T15:32:25.360Z,80.17
2019-01-28T15:35:27.364Z,79.58
2019-01-28T15:38:29.419Z,80.46
2019-01-28T15:41:36.084Z,79.58
2019-01-28T15:44:40.723Z,79.11
2019-01-28T15:47:45.549Z,77.77
2019-01-28T15:50:47.622Z,78.81
2019-01-28T15:53:50.228Z,78.57
2019-01-28T15:56:52.271Z,77.87
2019-01-28T15:59:54.274Z,78.19
2019-01-28T16:02:59.675Z,77.74
2019-01-28T16:06:01.734Z,77.90
2019-01-28T16:09:07.205Z,76.75
2019-01-28T16:12:09.774Z,77.46
2019-01-28T16:15:24.487Z,77.95
2019-01-28T16:18:34.268Z,76.68
2019-01-28T16:21:30.730Z,75.59
2019-01-28T16:24:33.095Z,76.06
2019-01-28T16:27:35.256Z,75.19
2019-01-28T16:30:38.640Z,75.74
2019-01-28T16:33:43.264Z,76.31
2019-01-28T16:36:45.377Z,75.54
2019-01-28T16:39:47.427Z,75.60
2019-01-28T16:42:53.571Z,76.48
2019-01-28T16:45:55.631Z,73.89
2019-01-28T16:49:00.057Z,71.56
2019-01-28T16:52:02.148Z,73.41
2019-01-28T16:55:04.727Z,73.10
2019-01-28T16:58:06.785Z,73.74
2019-01-28T17:01:08.868Z,75.54
2019-01-28T17:04:11.210Z,75.05
2019-01-28T17:07:15.192Z,76.65
2019-01-28T17:10:17.240Z,75.09
2019-01-28T17:13:19.286Z,74.94
2019-01-28T17:16:23.855Z,74.91
2019-01-28T17:23:19.370Z,75.88
2019-01-28T17:28:21.456Z,75.60
2019-01-28T17:33:23.595Z,75.79
2019-01-28T17:38:28.689Z,75.51
2019-01-28T17:43:30.904Z,76.07
2019-01-28T17:48:32.976Z,76.44
2019-01-28T17:53:35.304Z,76.42
2019-01-28T17:58:37.984Z,76.95
2019-01-28T18:03:43.532Z,77.58
2019-01-28T18:08:45.555Z,76.95
2019-01-28T18:13:47.607Z,77.27
2019-01-28T18:18:49.667Z,77.56
2019-01-28T18:23:53.283Z,77.38
2019-01-28T18:28:55.367Z,76.32
2019-01-28T18:33:58.818Z,76.69
2019-01-28T18:39:01.002Z,77.14
2019-01-28T18:44:04.128Z,77.78
2019-01-28T18:49:06.177Z,79.91
2019-01-28T18:54:08.256Z,79.82
2019-01-28T18:59:10.269Z,80.71
2019-01-28T19:04:14.644Z,80.91
2019-01-28T19:09:31.388Z,80.77
2019-01-28T19:14:51.769Z,80.20
2019-01-28T19:20:12.004Z,80.74
2019-01-28T19:25:14.137Z,79.75
2019-01-28T19:30:18.075Z,78.91
2019-01-28T19:35:20.170Z,79.23
2019-01-28T19:40:25.285Z,79.00
2019-01-28T19:45:30.265Z,78.28
2019-01-28T19:50:35.053Z,78.58
2019-01-28T19:55:37.584Z,77.55
2019-01-28T20:00:58.388Z,78.05
2019-01-28T20:06:01.565Z,77.28
2019-01-28T20:11:03.592Z,76.80
2019-01-28T20:16:05.574Z,78.86
2019-01-28T20:21:08.987Z,78.60
2019-01-28T20:26:15.699Z,79.76
2019-01-28T20:31:20.042Z,80.59
2019-01-28T20:36:22.410Z,81.56
2019-01-28T20:41:24.441Z,80.90
2019-01-28T20:46:28.754Z,81.48
2019-01-28T20:51:32.419Z,80.48
2019-01-28T20:56:37.534Z,81.77
2019-01-28T21:01:43.653Z,82.21
2019-01-28T21:06:47.811Z,82.05
2019-01-28T21:11:53.535Z,81.58
2019-01-28T21:17:00.098Z,82.19
2019-01-28T21:22:03.829Z,80.55
2019-01-28T21:27:05.890Z,79.87
2019-01-28T21:32:08.166Z,79.93
2019-01-28T21:37:16.225Z,80.26
2019-01-28T21:42:18.275Z,80.69
2019-01-28T21:47:20.306Z,80.37
2019-01-28T21:52:22.489Z,79.67
2019-01-28T21:57:24.523Z,80.13
2019-01-28T22:02:26.765Z,79.47
2019-01-28T22:07:31.013Z,79.86
2019-01-28T22:12:38.182Z,81.02
2019-01-28T22:17:40.204Z,81.34
2019-01-28T22:22:42.410Z,81.70
2019-01-28T22:27:46.310Z,81.73
2019-01-28T22:32:48.490Z,81.86
2019-01-28T22:37:52.825Z,81.63
2019-01-28T22:42:54.831Z,81.66
2019-01-28T22:47:56.899Z,81.52
2019-01-28T22:52:59.479Z,81.27
2019-01-28T22:58:01.500Z,81.47
2019-01-28T23:03:03.943Z,81.29
2019-01-28T23:08:05.969Z,81.52
2019-01-28T23:13:08.349Z,82.00
2019-01-28T23:18:10.375Z,80.36
2019-01-28T23:23:12.592Z,78.81
2019-01-28T23:28:14.623Z,78.08
2019-01-28T23:33:21.509Z,79.10
2019-01-28T23:38:23.470Z,79.29
2019-01-28T23:43:26.210Z,79.68
2019-01-28T23:48:33.278Z,80.26
2019-01-28T23:53:35.526Z,80.36
2019-01-28T23:58:37.530Z,81.31
